Clio — 9HA4306 — position and weather

sailwx.info

Track history (hours):
 
Tides and Currents Weather Stations Pressure Air Temp Water Temp Dewpoint Dewpoint Depression Visibility Wind Speed Wind Dir Waves Ship Positions

Clio

Last reported at 2017-Oct-19 04:29 UTC. Time now 2017-Oct-19 11:13 UTC.
Position N 34°07' E 030°44'.

Length 100 m; draft 3.3 m.

Type: Passenger vessel. MMSI: 249596000.

Date/timePositionNaut miles runAvg speedWind from/ knotsBaromVisibWave heightAir tempDewpointWater temp
2017-Oct-19 04:29N 34°07' E 030°44'511.3
2017-Oct-19 04:00N 34°09' E 030°38'611.5
2017-Oct-19 03:30N 34°10' E 030°32'611.5
2017-Oct-19 03:00N 34°12' E 030°25'49410.9
2017-Oct-17 05:52N 36°15' E 020°40'711.0
2017-Oct-17 05:11N 36°15' E 020°31'211.0
2017-Oct-17 05:00N 36°14' E 020°28'511.0
2017-Oct-17 04:30N 36°14' E 020°21'1711.2
2017-Oct-17 03:01N 36°13' E 020°01'511.1
2017-Oct-17 02:36N 36°13' E 019°55'111.0
2017-Oct-17 02:30N 36°12' E 019°54'910.9
2017-Oct-17 01:43N 36°12' E 019°43'511.2
2017-Oct-17 01:16N 36°12' E 019°37'411.1
2017-Oct-17 00:57N 36°11' E 019°33'2311.0
2017-Oct-16 22:49N 36°09' E 019°04'410.9
2017-Oct-16 22:29N 36°09' E 018°59'3311.0
2017-Oct-16 19:30N 36°07' E 018°19'15711.4
2017-Oct-16 05:40N 36°25' E 015°05'210.7
2017-Oct-16 05:27N 36°25' E 015°02'610.9
2017-Oct-16 04:54N 36°27' E 014°55'1011.1
2017-Oct-16 04:02N 36°29' E 014°43'211.5
2017-Oct-16 03:52N 36°29' E 014°41'411.5
2017-Oct-16 03:30N 36°30' E 014°36'611.4
2017-Oct-16 03:00N 36°31' E 014°29'611.5
2017-Oct-16 02:30N 36°34' E 014°22'611.3
2017-Oct-16 02:00N 36°35' E 014°15'611.4
2017-Oct-16 01:28N 36°37' E 014°08'511.2
2017-Oct-16 01:00N 36°38' E 014°02'711.0
2017-Oct-16 00:24N 36°40' E 013°54'410.9
2017-Oct-15 23:59N 36°42' E 013°49'611.1
2017-Oct-15 23:29N 36°43' E 013°42'510.9
2017-Oct-15 23:00N 36°45' E 013°36'610.9
2017-Oct-15 22:29N 36°46' E 013°29'510.9
2017-Oct-15 22:00N 36°48' E 013°23'510.8
2017-Oct-15 21:30N 36°50' E 013°16'510.7
2017-Oct-15 21:00N 36°51' E 013°10'611.2
2017-Oct-15 20:30N 36°53' E 013°03'611.1
2017-Oct-15 20:00N 36°54' E 012°56'611.1
2017-Oct-15 19:30N 36°56' E 012°50'611.6
2017-Oct-15 19:00N 36°58' E 012°43'611.5
2017-Oct-15 18:30N 36°59' E 012°36'611.6
2017-Oct-15 18:00N 37°01' E 012°29'1611.1
2017-Oct-15 16:35N 37°05' E 012°10'811.3
2017-Oct-15 15:50N 37°08' E 012°00'35110.9
2017-Oct-14 07:43N 37°14' E 004°40'3411.1
2017-Oct-14 04:39N 37°10' E 003°57'211.3
2017-Oct-14 04:30N 37°10' E 003°55'611.1
2017-Oct-14 03:59N 37°09' E 003°48'2911.3
2017-Oct-14 01:24N 37°06' E 003°12'411.1
2017-Oct-14 01:00N 37°05' E 003°06'611.3
2017-Oct-14 00:30N 37°04' E 002°59'611.5
2017-Oct-14 00:00N 37°04' E 002°52'611.3
2017-Oct-13 23:30N 37°03' E 002°45'611.2
2017-Oct-13 23:00N 37°02' E 002°38'611.2
2017-Oct-13 22:30N 37°01' E 002°31'711.2
2017-Oct-13 21:55N 36°60' E 002°23'511.2
2017-Oct-13 21:30N 36°59' E 002°18'611.1
2017-Oct-13 21:00N 36°58' E 002°11'611.1
2017-Oct-13 20:30N 36°57' E 002°04'611.3
2017-Oct-13 20:00N 36°56' E 001°57'611.4
2017-Oct-13 19:30N 36°55' E 001°50'611.4
2017-Oct-13 19:00N 36°54' E 001°43'711.3
2017-Oct-13 18:22N 36°53' E 001°34'411.2
2017-Oct-13 18:00N 36°52' E 001°29'611.2
2017-Oct-13 17:30N 36°51' E 001°22'611.2
2017-Oct-13 17:00N 36°50' E 001°15'611.0
2017-Oct-13 16:30N 36°49' E 001°08'510.9
2017-Oct-13 16:00N 36°48' E 001°02'710.5
2017-Oct-13 15:20N 36°47' E 000°53'310.4
2017-Oct-13 15:00N 36°46' E 000°49'611.0
2017-Oct-13 14:30N 36°45' E 000°42'511.1
2017-Oct-13 14:00N 36°45' E 000°35'611.7
2017-Oct-13 13:30N 36°43' E 000°28'611.3
2017-Oct-13 13:00N 36°42' E 000°21'510.6
2017-Oct-13 12:30N 36°42' E 000°15'612.8
2017-Oct-13 12:01N 36°41' E 000°07'1811.8
2017-Oct-13 10:31N 36°38' W 000°15'011.1
2017-Oct-13 10:29N 36°38' W 000°15'511.1
2017-Oct-13 10:00N 36°37' W 000°22'711.1
2017-Oct-13 09:23N 36°35' W 000°30'811.1
2017-Oct-13 08:39N 36°34' W 000°40'211.2
2017-Oct-13 08:30N 36°34' W 000°42'1511.2
2017-Oct-13 07:12N 36°31' W 001°00'20011.1
2017-Oct-12 13:14N 36°01' W 005°05'311.3
2017-Oct-12 13:00N 36°00' W 005°08'611.3
2017-Oct-12 12:31N 35°60' W 005°15'611.2
2017-Oct-12 12:01N 35°59' W 005°22'713.5
2017-Oct-12 11:31N 35°57' W 005°30'713.2
2017-Oct-12 11:00N 35°55' W 005°38'4513.3
2017-Oct-12 07:37N 35°59' W 006°33'112.8
2017-Oct-12 07:30N 35°59' W 006°35'712.7
2017-Oct-12 06:58N 36°01' W 006°43'612.6
2017-Oct-12 06:30N 36°03' W 006°50'712.7
2017-Oct-12 05:58N 36°04' W 006°58'613.2
2017-Oct-12 05:28N 36°06' W 007°06'612.5
2017-Oct-12 05:00N 36°08' W 007°13'712.4
2017-Oct-12 04:28N 36°09' W 007°21'611.8
2017-Oct-12 04:00N 36°11' W 007°28'611.9
2017-Oct-12 03:30N 36°12' W 007°35'1812.7
2017-Oct-12 02:07N 36°17' W 007°56'112.7
2017-Oct-12 02:00N 36°17' W 007°58'1212.6
2017-Oct-12 01:03N 36°20' W 008°12'512.5
2017-Oct-12 00:37N 36°22' W 008°18'212.7
2017-Oct-12 00:29N 36°22' W 008°21'612.7
2017-Oct-12 00:01N 36°24' W 008°28'612.9
2017-Oct-11 23:30N 36°25' W 008°35'913.3
2017-Oct-11 22:52N 36°27' W 008°46'613.3
2017-Oct-11 22:24N 36°29' W 008°53'613.5
2017-Oct-11 21:57N 36°31' W 009°00'713.6
2017-Oct-11 21:25N 36°33' W 009°09'613.6
2017-Oct-11 21:00N 36°34' W 009°16'2013.2
2017-Oct-11 19:30N 36°49' W 009°32'2812.8
2017-Oct-11 17:18N 37°17' W 009°32'88 5.1
2017-Oct-11 00:00N 38°43' W 009°07'0 0.0
2017-Oct-10 23:30N 38°43' W 009°07'0 0.0
2017-Oct-10 23:00N 38°43' W 009°07'0 0.0
2017-Oct-10 22:30N 38°43' W 009°07'0 0.0
2017-Oct-10 21:57N 38°43' W 009°07'0 0.0
2017-Oct-10 21:30N 38°43' W 009°07'0 0.0
2017-Oct-10 21:00N 38°43' W 009°07'0 0.0
2017-Oct-10 20:30N 38°43' W 009°07'0 0.0
2017-Oct-10 20:00N 38°43' W 009°07'0 0.0
2017-Oct-10 19:30N 38°43' W 009°07'0 0.0
2017-Oct-10 19:00N 38°43' W 009°07'0 0.0
2017-Oct-10 18:30N 38°43' W 009°07'0 0.0
2017-Oct-10 18:00N 38°43' W 009°07'0 0.0
2017-Oct-10 17:27N 38°43' W 009°07'0 0.0
2017-Oct-10 17:00N 38°43' W 009°07'0 0.0
2017-Oct-10 16:30N 38°43' W 009°07'0 0.0
2017-Oct-10 15:57N 38°43' W 009°07'0 0.0
2017-Oct-10 15:27N 38°43' W 009°07'0 0.0
2017-Oct-10 14:57N 38°43' W 009°07'0 0.0
2017-Oct-10 13:54N 38°43' W 009°07'0 0.0
2017-Oct-10 13:27N 38°43' W 009°07'0 0.0
2017-Oct-10 13:00N 38°43' W 009°07'0 0.0
2017-Oct-10 12:27N 38°43' W 009°07'0 0.0
2017-Oct-10 12:00N 38°43' W 009°07'0 0.0
2017-Oct-10 11:27N 38°43' W 009°07'0 0.0
2017-Oct-10 11:00N 38°43' W 009°07'0 0.0
2017-Oct-10 10:30N 38°43' W 009°07'0 0.0
2017-Oct-10 09:54N 38°43' W 009°07'0 0.0
2017-Oct-10 09:30N 38°43' W 009°07'0 0.0
2017-Oct-10 08:57N 38°43' W 009°07'0 0.0
2017-Oct-10 08:30N 38°43' W 009°07'0 0.0
2017-Oct-10 08:00N 38°43' W 009°07'0 0.0
2017-Oct-10 07:27N 38°43' W 009°07'0 0.0
2017-Oct-10 07:01N 38°43' W 009°07'1 2.8
2017-Oct-10 06:31N 38°42' W 009°09'4 8.0
2017-Oct-10 06:01N 38°41' W 009°14'5 9.5
2017-Oct-10 05:31N 38°39' W 009°19'510.8
2017-Oct-10 05:01N 38°35' W 009°23'611.8
2017-Oct-10 04:31N 38°29' W 009°22'612.0
2017-Oct-10 04:01N 38°23' W 009°22'612.2
2017-Oct-10 03:31N 38°17' W 009°21'612.3
2017-Oct-10 03:01N 38°11' W 009°21'612.1
2017-Oct-10 02:31N 38°05' W 009°20'611.8
2017-Oct-10 02:01N 37°59' W 009°20'611.9
2017-Oct-10 01:31N 37°53' W 009°20'611.7
2017-Oct-10 01:01N 37°47' W 009°21'611.8
2017-Oct-10 00:31N 37°41' W 009°21'611.7
2017-Oct-10 00:01N 37°35' W 009°21'612.5
2017-Oct-09 23:30N 37°29' W 009°21'612.9
2017-Oct-09 23:01N 37°23' W 009°21'612.8
2017-Oct-09 22:31N 37°16' W 009°21'612.9
2017-Oct-09 22:01N 37°10' W 009°21'612.4
2017-Oct-09 21:31N 37°04' W 009°22'611.2
2017-Oct-09 21:00N 36°58' W 009°21'611.1
2017-Oct-09 20:31N 36°53' W 009°18'611.1
2017-Oct-09 20:01N 36°49' W 009°13'611.9
2017-Oct-09 19:30N 36°46' W 009°07'612.4
2017-Oct-09 19:01N 36°44' W 008°60'611.4
2017-Oct-09 18:30N 36°44' W 008°53'612.5
2017-Oct-09 18:01N 36°49' W 008°48'612.4
2017-Oct-09 17:31N 36°54' W 008°43'612.4
2017-Oct-09 17:01N 36°59' W 008°38'612.5
2017-Oct-09 16:30N 37°04' W 008°34'4 7.8
2017-Oct-09 16:00N 37°08' W 008°32'0 0.1
2017-Oct-09 15:28N 37°08' W 008°32'0 0.0
2017-Oct-09 14:58N 37°08' W 008°32'0 0.0
2017-Oct-09 14:25N 37°08' W 008°32'0 0.0
2017-Oct-09 13:58N 37°08' W 008°32'0 0.0
2017-Oct-09 13:28N 37°08' W 008°32'0 0.0
2017-Oct-09 12:58N 37°08' W 008°32'0 0.0
2017-Oct-09 12:28N 37°08' W 008°32'0 0.0
2017-Oct-09 11:58N 37°08' W 008°32'0 0.0
2017-Oct-09 11:28N 37°08' W 008°32'0 0.0
2017-Oct-09 10:55N 37°08' W 008°32'0 0.0
2017-Oct-09 10:28N 37°08' W 008°32'0 0.0
2017-Oct-09 09:58N 37°08' W 008°32'0 0.0
2017-Oct-09 09:25N 37°08' W 008°32'0 0.0
2017-Oct-09 08:58N 37°08' W 008°32'0 0.0
2017-Oct-09 08:28N 37°08' W 008°32'0 0.0
2017-Oct-09 07:58N 37°08' W 008°32'0 0.0
2017-Oct-09 07:28N 37°08' W 008°32'0 0.0
2017-Oct-09 06:58N 37°08' W 008°32'0 0.0
2017-Oct-09 06:28N 37°08' W 008°32'0 0.8
2017-Oct-09 06:00N 37°07' W 008°32'4 8.8
2017-Oct-09 05:30N 37°03' W 008°29'510.2
2017-Oct-09 05:00N 37°01' W 008°23'510.8
2017-Oct-09 04:30N 36°58' W 008°18'  
Track history (hours):
 
Tides and Currents Weather Stations Pressure Air Temp Water Temp Dewpoint Dewpoint Depression Visibility Wind Speed Wind Dir Waves Ship Positions

Clio

Last reported at 2017-Oct-19 04:29 UTC. Time now 2017-Oct-19 11:13 UTC.
Position N 34°07' E 030°44'.

Length 100 m; draft 3.3 m.

Type: Passenger vessel. MMSI: 249596000.

Date/timePositionNaut miles runAvg speedWind from/ knotsBaromVisibWave heightAir tempDewpointWater temp
2017-Oct-19 04:29N 34°07' E 030°44'511.3
2017-Oct-19 04:00N 34°09' E 030°38'611.5
2017-Oct-19 03:30N 34°10' E 030°32'611.5
2017-Oct-19 03:00N 34°12' E 030°25'49410.9
2017-Oct-17 05:52N 36°15' E 020°40'711.0
2017-Oct-17 05:11N 36°15' E 020°31'211.0
2017-Oct-17 05:00N 36°14' E 020°28'511.0
2017-Oct-17 04:30N 36°14' E 020°21'1711.2
2017-Oct-17 03:01N 36°13' E 020°01'511.1
2017-Oct-17 02:36N 36°13' E 019°55'111.0
2017-Oct-17 02:30N 36°12' E 019°54'910.9
2017-Oct-17 01:43N 36°12' E 019°43'511.2
2017-Oct-17 01:16N 36°12' E 019°37'411.1
2017-Oct-17 00:57N 36°11' E 019°33'2311.0
2017-Oct-16 22:49N 36°09' E 019°04'410.9
2017-Oct-16 22:29N 36°09' E 018°59'3311.0
2017-Oct-16 19:30N 36°07' E 018°19'15711.4
2017-Oct-16 05:40N 36°25' E 015°05'210.7
2017-Oct-16 05:27N 36°25' E 015°02'610.9
2017-Oct-16 04:54N 36°27' E 014°55'1011.1
2017-Oct-16 04:02N 36°29' E 014°43'211.5
2017-Oct-16 03:52N 36°29' E 014°41'411.5
2017-Oct-16 03:30N 36°30' E 014°36'611.4
2017-Oct-16 03:00N 36°31' E 014°29'611.5
2017-Oct-16 02:30N 36°34' E 014°22'611.3
2017-Oct-16 02:00N 36°35' E 014°15'611.4
2017-Oct-16 01:28N 36°37' E 014°08'511.2
2017-Oct-16 01:00N 36°38' E 014°02'711.0
2017-Oct-16 00:24N 36°40' E 013°54'410.9
2017-Oct-15 23:59N 36°42' E 013°49'611.1
2017-Oct-15 23:29N 36°43' E 013°42'510.9
2017-Oct-15 23:00N 36°45' E 013°36'610.9
2017-Oct-15 22:29N 36°46' E 013°29'510.9
2017-Oct-15 22:00N 36°48' E 013°23'510.8
2017-Oct-15 21:30N 36°50' E 013°16'510.7
2017-Oct-15 21:00N 36°51' E 013°10'611.2
2017-Oct-15 20:30N 36°53' E 013°03'611.1
2017-Oct-15 20:00N 36°54' E 012°56'611.1
2017-Oct-15 19:30N 36°56' E 012°50'611.6
2017-Oct-15 19:00N 36°58' E 012°43'611.5
2017-Oct-15 18:30N 36°59' E 012°36'611.6
2017-Oct-15 18:00N 37°01' E 012°29'1611.1
2017-Oct-15 16:35N 37°05' E 012°10'811.3
2017-Oct-15 15:50N 37°08' E 012°00'35110.9
2017-Oct-14 07:43N 37°14' E 004°40'3411.1
2017-Oct-14 04:39N 37°10' E 003°57'211.3
2017-Oct-14 04:30N 37°10' E 003°55'611.1
2017-Oct-14 03:59N 37°09' E 003°48'2911.3
2017-Oct-14 01:24N 37°06' E 003°12'411.1
2017-Oct-14 01:00N 37°05' E 003°06'611.3
2017-Oct-14 00:30N 37°04' E 002°59'611.5
2017-Oct-14 00:00N 37°04' E 002°52'611.3
2017-Oct-13 23:30N 37°03' E 002°45'611.2
2017-Oct-13 23:00N 37°02' E 002°38'611.2
2017-Oct-13 22:30N 37°01' E 002°31'711.2
2017-Oct-13 21:55N 36°60' E 002°23'511.2
2017-Oct-13 21:30N 36°59' E 002°18'611.1
2017-Oct-13 21:00N 36°58' E 002°11'611.1
2017-Oct-13 20:30N 36°57' E 002°04'611.3
2017-Oct-13 20:00N 36°56' E 001°57'611.4
2017-Oct-13 19:30N 36°55' E 001°50'611.4
2017-Oct-13 19:00N 36°54' E 001°43'711.3
2017-Oct-13 18:22N 36°53' E 001°34'411.2
2017-Oct-13 18:00N 36°52' E 001°29'611.2
2017-Oct-13 17:30N 36°51' E 001°22'611.2
2017-Oct-13 17:00N 36°50' E 001°15'611.0
2017-Oct-13 16:30N 36°49' E 001°08'510.9
2017-Oct-13 16:00N 36°48' E 001°02'710.5
2017-Oct-13 15:20N 36°47' E 000°53'310.4
2017-Oct-13 15:00N 36°46' E 000°49'611.0
2017-Oct-13 14:30N 36°45' E 000°42'511.1
2017-Oct-13 14:00N 36°45' E 000°35'611.7
2017-Oct-13 13:30N 36°43' E 000°28'611.3
2017-Oct-13 13:00N 36°42' E 000°21'510.6
2017-Oct-13 12:30N 36°42' E 000°15'612.8
2017-Oct-13 12:01N 36°41' E 000°07'1811.8
2017-Oct-13 10:31N 36°38' W 000°15'011.1
2017-Oct-13 10:29N 36°38' W 000°15'511.1
2017-Oct-13 10:00N 36°37' W 000°22'711.1
2017-Oct-13 09:23N 36°35' W 000°30'811.1
2017-Oct-13 08:39N 36°34' W 000°40'211.2
2017-Oct-13 08:30N 36°34' W 000°42'1511.2
2017-Oct-13 07:12N 36°31' W 001°00'20011.1
2017-Oct-12 13:14N 36°01' W 005°05'311.3
2017-Oct-12 13:00N 36°00' W 005°08'611.3
2017-Oct-12 12:31N 35°60' W 005°15'611.2
2017-Oct-12 12:01N 35°59' W 005°22'713.5
2017-Oct-12 11:31N 35°57' W 005°30'713.2
2017-Oct-12 11:00N 35°55' W 005°38'4513.3
2017-Oct-12 07:37N 35°59' W 006°33'112.8
2017-Oct-12 07:30N 35°59' W 006°35'712.7
2017-Oct-12 06:58N 36°01' W 006°43'612.6
2017-Oct-12 06:30N 36°03' W 006°50'712.7
2017-Oct-12 05:58N 36°04' W 006°58'613.2
2017-Oct-12 05:28N 36°06' W 007°06'612.5
2017-Oct-12 05:00N 36°08' W 007°13'712.4
2017-Oct-12 04:28N 36°09' W 007°21'611.8
2017-Oct-12 04:00N 36°11' W 007°28'611.9
2017-Oct-12 03:30N 36°12' W 007°35'1812.7
2017-Oct-12 02:07N 36°17' W 007°56'112.7
2017-Oct-12 02:00N 36°17' W 007°58'1212.6
2017-Oct-12 01:03N 36°20' W 008°12'512.5
2017-Oct-12 00:37N 36°22' W 008°18'212.7
2017-Oct-12 00:29N 36°22' W 008°21'612.7
2017-Oct-12 00:01N 36°24' W 008°28'612.9
2017-Oct-11 23:30N 36°25' W 008°35'913.3
2017-Oct-11 22:52N 36°27' W 008°46'613.3
2017-Oct-11 22:24N 36°29' W 008°53'613.5
2017-Oct-11 21:57N 36°31' W 009°00'713.6
2017-Oct-11 21:25N 36°33' W 009°09'613.6
2017-Oct-11 21:00N 36°34' W 009°16'2013.2
2017-Oct-11 19:30N 36°49' W 009°32'2812.8
2017-Oct-11 17:18N 37°17' W 009°32'88 5.1
2017-Oct-11 00:00N 38°43' W 009°07'0 0.0
2017-Oct-10 23:30N 38°43' W 009°07'0 0.0
2017-Oct-10 23:00N 38°43' W 009°07'0 0.0
2017-Oct-10 22:30N 38°43' W 009°07'0 0.0
2017-Oct-10 21:57N 38°43' W 009°07'0 0.0
2017-Oct-10 21:30N 38°43' W 009°07'0 0.0
2017-Oct-10 21:00N 38°43' W 009°07'0 0.0
2017-Oct-10 20:30N 38°43' W 009°07'0 0.0
2017-Oct-10 20:00N 38°43' W 009°07'0 0.0
2017-Oct-10 19:30N 38°43' W 009°07'0 0.0
2017-Oct-10 19:00N 38°43' W 009°07'0 0.0
2017-Oct-10 18:30N 38°43' W 009°07'0 0.0
2017-Oct-10 18:00N 38°43' W 009°07'0 0.0
2017-Oct-10 17:27N 38°43' W 009°07'0 0.0
2017-Oct-10 17:00N 38°43' W 009°07'0 0.0
2017-Oct-10 16:30N 38°43' W 009°07'0 0.0
2017-Oct-10 15:57N 38°43' W 009°07'0 0.0
2017-Oct-10 15:27N 38°43' W 009°07'0 0.0
2017-Oct-10 14:57N 38°43' W 009°07'0 0.0
2017-Oct-10 13:54N 38°43' W 009°07'0 0.0
2017-Oct-10 13:27N 38°43' W 009°07'0 0.0
2017-Oct-10 13:00N 38°43' W 009°07'0 0.0
2017-Oct-10 12:27N 38°43' W 009°07'0 0.0
2017-Oct-10 12:00N 38°43' W 009°07'0 0.0
2017-Oct-10 11:27N 38°43' W 009°07'0 0.0
2017-Oct-10 11:00N 38°43' W 009°07'0 0.0
2017-Oct-10 10:30N 38°43' W 009°07'0 0.0
2017-Oct-10 09:54N 38°43' W 009°07'0 0.0
2017-Oct-10 09:30N 38°43' W 009°07'0 0.0
2017-Oct-10 08:57N 38°43' W 009°07'0 0.0
2017-Oct-10 08:30N 38°43' W 009°07'0 0.0
2017-Oct-10 08:00N 38°43' W 009°07'0 0.0
2017-Oct-10 07:27N 38°43' W 009°07'0 0.0
2017-Oct-10 07:01N 38°43' W 009°07'1 2.8
2017-Oct-10 06:31N 38°42' W 009°09'4 8.0
2017-Oct-10 06:01N 38°41' W 009°14'5 9.5
2017-Oct-10 05:31N 38°39' W 009°19'510.8
2017-Oct-10 05:01N 38°35' W 009°23'611.8
2017-Oct-10 04:31N 38°29' W 009°22'612.0
2017-Oct-10 04:01N 38°23' W 009°22'612.2
2017-Oct-10 03:31N 38°17' W 009°21'612.3
2017-Oct-10 03:01N 38°11' W 009°21'612.1
2017-Oct-10 02:31N 38°05' W 009°20'611.8
2017-Oct-10 02:01N 37°59' W 009°20'611.9
2017-Oct-10 01:31N 37°53' W 009°20'611.7
2017-Oct-10 01:01N 37°47' W 009°21'611.8
2017-Oct-10 00:31N 37°41' W 009°21'611.7
2017-Oct-10 00:01N 37°35' W 009°21'612.5
2017-Oct-09 23:30N 37°29' W 009°21'612.9
2017-Oct-09 23:01N 37°23' W 009°21'612.8
2017-Oct-09 22:31N 37°16' W 009°21'612.9
2017-Oct-09 22:01N 37°10' W 009°21'612.4
2017-Oct-09 21:31N 37°04' W 009°22'611.2
2017-Oct-09 21:00N 36°58' W 009°21'611.1
2017-Oct-09 20:31N 36°53' W 009°18'611.1
2017-Oct-09 20:01N 36°49' W 009°13'611.9
2017-Oct-09 19:30N 36°46' W 009°07'612.4
2017-Oct-09 19:01N 36°44' W 008°60'611.4
2017-Oct-09 18:30N 36°44' W 008°53'612.5
2017-Oct-09 18:01N 36°49' W 008°48'612.4
2017-Oct-09 17:31N 36°54' W 008°43'612.4
2017-Oct-09 17:01N 36°59' W 008°38'612.5
2017-Oct-09 16:30N 37°04' W 008°34'4 7.8
2017-Oct-09 16:00N 37°08' W 008°32'0 0.1
2017-Oct-09 15:28N 37°08' W 008°32'0 0.0
2017-Oct-09 14:58N 37°08' W 008°32'0 0.0
2017-Oct-09 14:25N 37°08' W 008°32'0 0.0
2017-Oct-09 13:58N 37°08' W 008°32'0 0.0
2017-Oct-09 13:28N 37°08' W 008°32'0 0.0
2017-Oct-09 12:58N 37°08' W 008°32'0 0.0
2017-Oct-09 12:28N 37°08' W 008°32'0 0.0
2017-Oct-09 11:58N 37°08' W 008°32'0 0.0
2017-Oct-09 11:28N 37°08' W 008°32'0 0.0
2017-Oct-09 10:55N 37°08' W 008°32'0 0.0
2017-Oct-09 10:28N 37°08' W 008°32'0 0.0
2017-Oct-09 09:58N 37°08' W 008°32'0 0.0
2017-Oct-09 09:25N 37°08' W 008°32'0 0.0
2017-Oct-09 08:58N 37°08' W 008°32'0 0.0
2017-Oct-09 08:28N 37°08' W 008°32'0 0.0
2017-Oct-09 07:58N 37°08' W 008°32'0 0.0
2017-Oct-09 07:28N 37°08' W 008°32'0 0.0
2017-Oct-09 06:58N 37°08' W 008°32'0 0.0
2017-Oct-09 06:28N 37°08' W 008°32'0 0.8
2017-Oct-09 06:00N 37°07' W 008°32'4 8.8
2017-Oct-09 05:30N 37°03' W 008°29'510.2
2017-Oct-09 05:00N 37°01' W 008°23'510.8
2017-Oct-09 04:30N 36°58' W 008°18'  

Dump ship's entire track history